createdAt,value
2023-03-29T00:00:42.327Z,4.25
2023-03-29T00:05:44.880Z,3.96
2023-03-29T00:10:49.521Z,4.04
2023-03-29T00:15:51.187Z,4.08
2023-03-29T00:40:11.762Z,3.90
2023-03-29T00:45:13.336Z,3.91
2023-03-29T00:50:33.192Z,4.20
2023-03-29T00:55:39.296Z,3.79
2023-03-29T01:00:48.742Z,3.81
2023-03-29T01:05:57.811Z,4.11
2023-03-29T01:11:18.077Z,3.77
2023-03-29T01:16:22.120Z,3.86
2023-03-29T01:21:44.423Z,3.75
2023-03-29T01:27:09.569Z,3.67
2023-03-29T01:32:23.419Z,3.68
2023-03-29T01:37:37.655Z,3.88
2023-03-29T01:43:04.569Z,3.88
2023-03-29T01:48:19.366Z,3.61
2023-03-29T01:53:42.277Z,3.62
2023-03-29T01:58:53.170Z,3.34
2023-03-29T02:04:02.853Z,3.88
2023-03-29T02:09:05.064Z,3.79
2023-03-29T02:14:07.527Z,3.71
2023-03-29T02:19:10.060Z,3.92
2023-03-29T02:24:15.365Z,3.68
2023-03-29T02:29:17.186Z,3.72
2023-03-29T02:34:19.271Z,3.65
2023-03-29T02:39:22.975Z,3.72
2023-03-29T02:44:28.522Z,3.68
2023-03-29T02:49:30.441Z,3.66
2023-03-29T02:54:32.977Z,3.62
2023-03-29T02:59:35.025Z,3.70
2023-03-29T03:04:36.633Z,3.63
2023-03-29T03:09:38.267Z,3.75
2023-03-29T03:14:40.534Z,3.70
2023-03-29T03:19:45.017Z,3.55
2023-03-29T03:24:46.630Z,3.52
2023-03-29T03:29:48.708Z,3.54
2023-03-29T03:34:50.633Z,3.52
2023-03-29T03:39:52.218Z,3.65
2023-03-29T03:44:54.222Z,3.17
2023-03-29T03:49:55.847Z,3.11
2023-03-29T03:54:57.454Z,3.37
2023-03-29T03:59:59.108Z,3.24
2023-03-29T04:05:03.414Z,3.07
2023-03-29T04:10:06.317Z,3.65
2023-03-29T04:15:09.733Z,3.57
2023-03-29T04:20:12.418Z,3.52
2023-03-29T04:25:14.324Z,3.45
2023-03-29T04:30:17.027Z,3.45
2023-03-29T04:35:18.660Z,2.90
2023-03-29T04:40:21.000Z,3.34
2023-03-29T04:45:22.845Z,3.38
2023-03-29T04:50:24.633Z,3.52
2023-03-29T04:55:26.590Z,3.11
2023-03-29T05:00:28.717Z,3.64
2023-03-29T05:11:55.801Z,3.22
2023-03-29T05:16:57.488Z,3.22
2023-03-29T05:21:59.184Z,2.88
2023-03-29T05:27:01.306Z,2.98
2023-03-29T05:32:03.035Z,3.23
2023-03-29T05:37:04.771Z,3.44
2023-03-29T05:42:06.559Z,3.43
2023-03-29T05:47:08.157Z,3.46
2023-03-29T06:05:37.012Z,3.58
2023-03-29T06:10:38.938Z,3.61
2023-03-29T06:15:40.575Z,3.58
2023-03-29T06:20:42.692Z,3.57
2023-03-29T06:25:45.697Z,3.38
2023-03-29T06:30:48.336Z,4.69
2023-03-29T06:35:50.275Z,3.78
2023-03-29T06:40:52.806Z,3.63
2023-03-29T06:45:55.047Z,3.81
2023-03-29T06:50:56.991Z,3.77
2023-03-29T06:55:59.671Z,3.82
2023-03-29T07:01:05.192Z,3.81
2023-03-29T07:06:10.271Z,3.64
2023-03-29T07:11:14.239Z,4.08
2023-03-29T07:16:16.361Z,4.16
2023-03-29T07:21:18.022Z,4.25
2023-03-29T07:26:29.778Z,3.89
2023-03-29T07:31:35.917Z,3.86
2023-03-29T07:36:38.678Z,4.13
2023-03-29T07:41:40.710Z,4.44
2023-03-29T07:46:43.403Z,4.40
2023-03-29T07:51:45.064Z,4.33
2023-03-29T07:56:48.049Z,4.70
2023-03-29T08:01:50.554Z,4.95
2023-03-29T08:06:53.131Z,4.48
2023-03-29T08:11:54.967Z,4.50
2023-03-29T08:16:56.820Z,4.45
2023-03-29T08:21:58.983Z,4.57
2023-03-29T08:27:00.833Z,4.31
2023-03-29T08:32:03.086Z,4.64
2023-03-29T08:37:05.138Z,4.38
2023-03-29T08:42:31.378Z,4.55
2023-03-29T08:47:39.844Z,4.79
2023-03-29T08:52:47.119Z,6.02
2023-03-29T08:57:51.732Z,7.30
2023-03-29T09:02:54.493Z,7.55
2023-03-29T09:07:57.019Z,7.42
2023-03-29T09:13:34.892Z,7.44
2023-03-29T09:19:06.466Z,6.65
2023-03-29T09:24:29.689Z,6.91
2023-03-29T09:29:31.351Z,6.31
2023-03-29T09:34:49.362Z,5.38
2023-03-29T09:39:53.319Z,5.94
2023-03-29T09:45:02.055Z,5.13
2023-03-29T09:50:27.673Z,5.04
2023-03-29T09:55:35.282Z,7.08
2023-03-29T10:00:37.325Z,7.58
2023-03-29T10:05:39.271Z,7.42
2023-03-29T10:10:41.592Z,6.46
2023-03-29T10:15:43.494Z,7.57
2023-03-29T10:20:45.480Z,6.68
2023-03-29T10:25:47.522Z,7.12
2023-03-29T10:31:00.195Z,7.22
2023-03-29T10:36:07.002Z,7.08
2023-03-29T10:41:12.989Z,6.70
2023-03-29T10:46:44.227Z,6.40
2023-03-29T10:51:47.275Z,6.03
2023-03-29T10:56:58.928Z,6.69
2023-03-29T11:02:17.168Z,7.71
2023-03-29T11:07:19.939Z,7.50
2023-03-29T11:12:52.277Z,6.75
2023-03-29T11:18:06.030Z,6.05
2023-03-29T11:23:27.560Z,6.72
2023-03-29T11:28:47.981Z,5.87
2023-03-29T11:34:11.814Z,6.50
2023-03-29T11:39:38.861Z,6.80
2023-03-29T11:44:41.859Z,7.59
2023-03-29T11:50:03.344Z,6.84
2023-03-29T11:55:13.852Z,8.33
2023-03-29T12:00:22.248Z,6.65
2023-03-29T12:05:37.414Z,7.71
2023-03-29T12:11:10.068Z,8.33
2023-03-29T12:16:34.634Z,7.45
2023-03-29T12:21:36.860Z,7.48
2023-03-29T12:26:44.858Z,7.68
2023-03-29T12:32:01.708Z,7.44
2023-03-29T12:37:27.937Z,7.53
2023-03-29T12:42:29.898Z,8.14
2023-03-29T12:47:43.793Z,7.35
2023-03-29T12:52:45.535Z,8.52
2023-03-29T12:58:06.684Z,8.76
2023-03-29T13:03:27.666Z,7.81
2023-03-29T13:08:44.506Z,8.60
2023-03-29T13:13:50.725Z,8.79
2023-03-29T13:19:14.663Z,7.53
2023-03-29T13:24:41.382Z,8.68
2023-03-29T13:30:11.928Z,8.05
2023-03-29T13:35:31.408Z,8.42
2023-03-29T13:40:47.024Z,8.46
2023-03-29T13:46:05.280Z,9.13
2023-03-29T13:51:19.068Z,9.02
2023-03-29T13:56:30.084Z,9.45
2023-03-29T14:01:53.557Z,9.53
2023-03-29T14:06:56.921Z,9.20
2023-03-29T14:12:00.370Z,9.65
2023-03-29T14:17:02.284Z,9.38
2023-03-29T14:22:12.528Z,9.60
2023-03-29T14:27:14.398Z,8.53
2023-03-29T14:32:18.645Z,9.38
2023-03-29T14:37:29.036Z,8.94
2023-03-29T14:42:30.752Z,9.87
2023-03-29T14:47:33.530Z,8.38
2023-03-29T14:52:35.488Z,9.43
2023-03-29T14:57:38.100Z,9.69
2023-03-29T15:02:50.000Z,9.35
2023-03-29T15:07:56.091Z,9.53
2023-03-29T15:12:58.246Z,9.55
2023-03-29T15:18:00.900Z,9.19
2023-03-29T15:23:08.631Z,9.62
2023-03-29T15:28:32.838Z,9.53
2023-03-29T15:33:40.450Z,9.59
2023-03-29T15:38:45.211Z,9.51
2023-03-29T15:43:47.172Z,9.60
2023-03-29T15:48:48.808Z,9.50
2023-03-29T15:53:50.449Z,9.51
2023-03-29T15:58:52.362Z,9.15
2023-03-29T16:03:54.036Z,8.00
2023-03-29T16:08:57.226Z,7.82
2023-03-29T16:13:59.427Z,7.71
2023-03-29T16:19:01.102Z,7.66
2023-03-29T16:24:04.066Z,7.38
2023-03-29T16:29:05.768Z,7.52
2023-03-29T16:34:09.456Z,7.58
2023-03-29T16:39:13.141Z,7.48
2023-03-29T16:44:18.101Z,7.53
2023-03-29T16:49:20.791Z,7.26
2023-03-29T16:54:25.940Z,7.50
2023-03-29T16:59:27.809Z,7.35
2023-03-29T17:04:29.820Z,7.25
2023-03-29T17:09:32.271Z,7.25
2023-03-29T17:14:33.906Z,7.35
2023-03-29T17:19:36.172Z,7.26
2023-03-29T17:24:38.026Z,7.36
2023-03-29T17:29:39.903Z,7.31
2023-03-29T17:34:41.793Z,7.27
2023-03-29T17:39:43.880Z,7.34
2023-03-29T17:44:48.745Z,7.20
2023-03-29T17:49:52.218Z,7.23
2023-03-29T17:54:54.587Z,7.09
2023-03-29T17:59:56.922Z,7.08
2023-03-29T18:05:02.013Z,7.08
2023-03-29T18:10:05.264Z,7.08
2023-03-29T18:15:08.617Z,6.98
2023-03-29T18:20:11.928Z,6.91
2023-03-29T18:25:18.229Z,6.89
2023-03-29T18:30:20.990Z,6.85
2023-03-29T18:35:25.662Z,6.76
2023-03-29T18:40:28.454Z,6.70
2023-03-29T18:45:31.070Z,6.59
2023-03-29T18:50:33.336Z,6.51
2023-03-29T18:55:35.981Z,6.37
2023-03-29T19:00:39.402Z,6.37
2023-03-29T19:05:41.631Z,6.31
2023-03-29T19:10:44.263Z,6.31
2023-03-29T19:15:48.212Z,6.17
2023-03-29T19:20:56.988Z,6.15
2023-03-29T19:26:03.416Z,6.08
2023-03-29T19:31:06.462Z,5.98
2023-03-29T19:36:09.110Z,5.96
2023-03-29T19:41:12.922Z,5.98
2023-03-29T19:46:16.454Z,5.87
2023-03-29T19:51:18.801Z,5.96
2023-03-29T19:56:23.644Z,6.03
2023-03-29T20:01:27.526Z,5.84
2023-03-29T20:06:29.446Z,5.73
2023-03-29T20:11:31.563Z,5.88
2023-03-29T20:16:34.949Z,5.93
2023-03-29T20:21:40.102Z,5.82
2023-03-29T20:26:42.276Z,5.90
2023-03-29T20:31:45.549Z,5.74
2023-03-29T20:36:47.355Z,5.74
2023-03-29T20:41:50.767Z,5.52
2023-03-29T20:47:06.819Z,5.49
2023-03-29T20:52:17.543Z,5.54
2023-03-29T20:57:21.117Z,5.52
2023-03-29T21:02:23.955Z,5.45
2023-03-29T21:07:26.635Z,5.41
2023-03-29T21:12:28.480Z,5.42
2023-03-29T21:17:30.414Z,5.38
2023-03-29T21:22:34.825Z,5.33
2023-03-29T21:27:37.221Z,5.30
2023-03-29T21:32:39.059Z,5.29
2023-03-29T21:37:40.865Z,5.17
2023-03-29T21:42:42.492Z,5.06
2023-03-29T21:47:44.196Z,5.04
2023-03-29T21:52:45.981Z,5.10
2023-03-29T21:57:50.414Z,5.01
2023-03-29T22:02:52.297Z,5.02
2023-03-29T22:07:54.061Z,4.90
2023-03-29T22:12:57.293Z,5.04
2023-03-29T22:18:00.365Z,4.88
2023-03-29T22:23:03.282Z,5.05
2023-03-29T22:28:05.055Z,4.95
2023-03-29T22:33:06.981Z,4.94
2023-03-29T22:38:08.737Z,4.77
2023-03-29T22:43:10.375Z,4.75
2023-03-29T22:48:12.218Z,4.70
2023-03-29T22:53:14.263Z,4.77
2023-03-29T22:58:16.280Z,4.88
2023-03-29T23:03:18.331Z,4.86
2023-03-29T23:08:20.130Z,4.80
2023-03-29T23:13:26.036Z,4.77
2023-03-29T23:18:29.601Z,4.72
2023-03-29T23:23:31.776Z,4.77
2023-03-29T23:28:34.686Z,4.75
2023-03-29T23:33:38.742Z,4.86
2023-03-29T23:38:42.325Z,4.68
2023-03-29T23:43:47.069Z,4.76
2023-03-29T23:48:50.274Z,4.59
2023-03-29T23:53:52.120Z,4.77
2023-03-29T23:58:54.347Z,4.80
